sensor_id;sensor_type;location;lat;lon;timestamp;temperature;humidity
1011;DHT22;494;48.744;10.106;2023-08-06T00:02:21;17.10;99.90
1011;DHT22;494;48.744;10.106;2023-08-06T00:05:23;17.10;99.90
1011;DHT22;494;48.744;10.106;2023-08-06T00:08:21;17.10;99.90
1011;DHT22;494;48.744;10.106;2023-08-06T00:10:53;17.10;99.90
1011;DHT22;494;48.744;10.106;2023-08-06T00:13:24;17.10;99.90
1011;DHT22;494;48.744;10.106;2023-08-06T00:15:53;17.00;99.90
1011;DHT22;494;48.744;10.106;2023-08-06T00:18:22;17.00;99.90
1011;DHT22;494;48.744;10.106;2023-08-06T00:20:53;17.00;99.90
1011;DHT22;494;48.744;10.106;2023-08-06T00:23:25;17.10;99.90
1011;DHT22;494;48.744;10.106;2023-08-06T00:25:54;17.00;99.90
1011;DHT22;494;48.744;10.106;2023-08-06T00:28:24;17.00;99.90
1011;DHT22;494;48.744;10.106;2023-08-06T00:30:54;17.00;99.90
1011;DHT22;494;48.744;10.106;2023-08-06T00:33:29;17.10;99.90
1011;DHT22;494;48.744;10.106;2023-08-06T00:36:01;16.90;99.90
1011;DHT22;494;48.744;10.106;2023-08-06T00:38:46;16.80;99.90
1011;DHT22;494;48.744;10.106;2023-08-06T00:41:17;16.80;99.90
1011;DHT22;494;48.744;10.106;2023-08-06T00:43:47;16.80;99.90
1011;DHT22;494;48.744;10.106;2023-08-06T00:46:17;16.90;1.40
1011;DHT22;494;48.744;10.106;2023-08-06T00:48:46;17.00;99.90
1011;DHT22;494;48.744;10.106;2023-08-06T00:51:17;17.00;99.90
1011;DHT22;494;48.744;10.106;2023-08-06T00:53:52;17.00;99.90
1011;DHT22;494;48.744;10.106;2023-08-06T00:56:21;17.00;99.90
1011;DHT22;494;48.744;10.106;2023-08-06T00:58:51;16.90;99.90
1011;DHT22;494;48.744;10.106;2023-08-06T01:01:21;16.90;99.90
1011;DHT22;494;48.744;10.106;2023-08-06T01:03:53;16.90;1.00
1011;DHT22;494;48.744;10.106;2023-08-06T01:06:31;16.80;99.90
1011;DHT22;494;48.744;10.106;2023-08-06T01:09:21;16.80;99.90
1011;DHT22;494;48.744;10.106;2023-08-06T01:12:21;16.80;99.90
1011;DHT22;494;48.744;10.106;2023-08-06T01:15:11;16.80;99.90
1011;DHT22;494;48.744;10.106;2023-08-06T01:17:46;16.70;99.90
1011;DHT22;494;48.744;10.106;2023-08-06T01:20:18;16.80;99.90
1011;DHT22;494;48.744;10.106;2023-08-06T01:22:55;16.70;99.90
1011;DHT22;494;48.744;10.106;2023-08-06T01:25:57;16.90;1.00
1011;DHT22;494;48.744;10.106;2023-08-06T01:28:56;17.00;1.00
1011;DHT22;494;48.744;10.106;2023-08-06T01:31:36;17.00;1.00
1011;DHT22;494;48.744;10.106;2023-08-06T01:34:17;17.10;1.00
1011;DHT22;494;48.744;10.106;2023-08-06T01:36:58;17.10;1.00
1011;DHT22;494;48.744;10.106;2023-08-06T01:39:34;17.10;1.00
1011;DHT22;494;48.744;10.106;2023-08-06T01:42:06;17.20;1.00
1011;DHT22;494;48.744;10.106;2023-08-06T01:44:38;17.20;1.00
1011;DHT22;494;48.744;10.106;2023-08-06T01:47:13;17.20;1.00
1011;DHT22;494;48.744;10.106;2023-08-06T01:49:44;17.10;1.00
1011;DHT22;494;48.744;10.106;2023-08-06T01:52:17;17.10;1.00
1011;DHT22;494;48.744;10.106;2023-08-06T01:54:56;17.10;1.00
1011;DHT22;494;48.744;10.106;2023-08-06T01:57:50;17.10;1.00
1011;DHT22;494;48.744;10.106;2023-08-06T02:00:29;17.10;1.00
1011;DHT22;494;48.744;10.106;2023-08-06T02:03:02;17.10;99.90
1011;DHT22;494;48.744;10.106;2023-08-06T02:05:31;17.00;99.90
1011;DHT22;494;48.744;10.106;2023-08-06T02:08:00;16.90;1.00
1011;DHT22;494;48.744;10.106;2023-08-06T02:10:32;16.90;1.00
1011;DHT22;494;48.744;10.106;2023-08-06T02:13:02;16.80;1.00
1011;DHT22;494;48.744;10.106;2023-08-06T02:15:31;16.80;99.90
1011;DHT22;494;48.744;10.106;2023-08-06T02:18:01;16.80;99.90
1011;DHT22;494;48.744;10.106;2023-08-06T02:20:32;16.80;99.90
1011;DHT22;494;48.744;10.106;2023-08-06T02:23:01;16.80;99.90
1011;DHT22;494;48.744;10.106;2023-08-06T02:25:42;16.90;99.90
1011;DHT22;494;48.744;10.106;2023-08-06T02:28:17;16.80;99.90
1011;DHT22;494;48.744;10.106;2023-08-06T02:30:50;16.90;99.90
1011;DHT22;494;48.744;10.106;2023-08-06T02:33:21;16.80;1.00
1011;DHT22;494;48.744;10.106;2023-08-06T02:36:05;16.90;1.00
1011;DHT22;494;48.744;10.106;2023-08-06T02:38:51;16.90;99.90
1011;DHT22;494;48.744;10.106;2023-08-06T02:42:03;17.00;99.90
1011;DHT22;494;48.744;10.106;2023-08-06T02:44:44;17.00;99.90
1011;DHT22;494;48.744;10.106;2023-08-06T02:47:50;17.10;1.00
1011;DHT22;494;48.744;10.106;2023-08-06T02:50:23;17.10;1.00
1011;DHT22;494;48.744;10.106;2023-08-06T02:53:04;17.10;1.00
1011;DHT22;494;48.744;10.106;2023-08-06T02:55:57;16.90;99.90
1011;DHT22;494;48.744;10.106;2023-08-06T03:03:29;16.80;99.90
1011;DHT22;494;48.744;10.106;2023-08-06T03:06:04;16.80;1.00
1011;DHT22;494;48.744;10.106;2023-08-06T03:08:34;16.80;99.90
1011;DHT22;494;48.744;10.106;2023-08-06T03:11:07;16.70;99.90
1011;DHT22;494;48.744;10.106;2023-08-06T03:13:38;16.70;1.00
1011;DHT22;494;48.744;10.106;2023-08-06T03:16:10;16.50;1.00
1011;DHT22;494;48.744;10.106;2023-08-06T03:18:51;16.50;99.90
1011;DHT22;494;48.744;10.106;2023-08-06T03:21:24;16.60;99.90
1011;DHT22;494;48.744;10.106;2023-08-06T03:24:08;16.60;1.00
1011;DHT22;494;48.744;10.106;2023-08-06T03:26:48;16.60;1.00
1011;DHT22;494;48.744;10.106;2023-08-06T03:29:22;16.50;1.00
1011;DHT22;494;48.744;10.106;2023-08-06T03:31:52;16.50;1.00
1011;DHT22;494;48.744;10.106;2023-08-06T03:34:25;16.50;1.00
1011;DHT22;494;48.744;10.106;2023-08-06T03:37:14;16.30;1.00
1011;DHT22;494;48.744;10.106;2023-08-06T03:39:46;16.30;1.00
1011;DHT22;494;48.744;10.106;2023-08-06T03:42:16;16.30;1.00
1011;DHT22;494;48.744;10.106;2023-08-06T03:44:49;16.20;1.00
1011;DHT22;494;48.744;10.106;2023-08-06T03:47:21;16.30;1.00
1011;DHT22;494;48.744;10.106;2023-08-06T03:50:23;16.40;1.00
1011;DHT22;494;48.744;10.106;2023-08-06T03:52:53;16.40;1.00
1011;DHT22;494;48.744;10.106;2023-08-06T03:55:27;16.50;1.00
1011;DHT22;494;48.744;10.106;2023-08-06T03:58:02;16.50;99.90
1011;DHT22;494;48.744;10.106;2023-08-06T04:00:36;16.50;99.90
1011;DHT22;494;48.744;10.106;2023-08-06T04:03:25;16.50;99.90
1011;DHT22;494;48.744;10.106;2023-08-06T04:06:22;16.50;99.90
1011;DHT22;494;48.744;10.106;2023-08-06T04:08:58;16.50;99.90
1011;DHT22;494;48.744;10.106;2023-08-06T04:11:51;16.50;99.90
1011;DHT22;494;48.744;10.106;2023-08-06T04:14:58;16.50;99.90
1011;DHT22;494;48.744;10.106;2023-08-06T04:17:52;16.50;99.90
1011;DHT22;494;48.744;10.106;2023-08-06T04:20:26;16.50;99.90
1011;DHT22;494;48.744;10.106;2023-08-06T04:23:45;16.50;99.90
1011;DHT22;494;48.744;10.106;2023-08-06T04:26:47;16.50;99.90
1011;DHT22;494;48.744;10.106;2023-08-06T04:30:15;16.40;99.90
1011;DHT22;494;48.744;10.106;2023-08-06T04:47:44;16.40;99.90
1011;DHT22;494;48.744;10.106;2023-08-06T04:56:54;16.30;99.90
1011;DHT22;494;48.744;10.106;2023-08-06T05:23:30;16.30;99.90
1011;DHT22;494;48.744;10.106;2023-08-06T05:26:26;16.30;1.40
1011;DHT22;494;48.744;10.106;2023-08-06T05:29:16;16.40;99.90
1011;DHT22;494;48.744;10.106;2023-08-06T05:32:18;16.50;99.90
1011;DHT22;494;48.744;10.106;2023-08-06T05:38:11;16.60;99.90
1011;DHT22;494;48.744;10.106;2023-08-06T05:40:51;16.50;99.90
1011;DHT22;494;48.744;10.106;2023-08-06T05:43:26;16.50;1.00
1011;DHT22;494;48.744;10.106;2023-08-06T05:46:28;16.50;1.00
1011;DHT22;494;48.744;10.106;2023-08-06T05:49:17;16.60;1.00
1011;DHT22;494;48.744;10.106;2023-08-06T05:51:49;16.50;1.00
1011;DHT22;494;48.744;10.106;2023-08-06T05:54:47;16.60;1.00
1011;DHT22;494;48.744;10.106;2023-08-06T05:57:26;16.50;1.00
1011;DHT22;494;48.744;10.106;2023-08-06T06:00:38;16.50;1.00
1011;DHT22;494;48.744;10.106;2023-08-06T06:03:13;16.50;1.00
1011;DHT22;494;48.744;10.106;2023-08-06T06:06:08;16.60;1.00
1011;DHT22;494;48.744;10.106;2023-08-06T06:08:45;16.60;99.90
1011;DHT22;494;48.744;10.106;2023-08-06T06:11:39;16.70;99.90
1011;DHT22;494;48.744;10.106;2023-08-06T06:14:45;16.70;99.90
1011;DHT22;494;48.744;10.106;2023-08-06T06:17:30;16.70;99.90
1011;DHT22;494;48.744;10.106;2023-08-06T06:20:31;16.70;99.90
1011;DHT22;494;48.744;10.106;2023-08-06T06:23:42;16.80;99.90
1011;DHT22;494;48.744;10.106;2023-08-06T06:26:22;16.70;99.90
1011;DHT22;494;48.744;10.106;2023-08-06T06:29:06;17.00;99.90
1011;DHT22;494;48.744;10.106;2023-08-06T06:32:04;17.20;99.90
1011;DHT22;494;48.744;10.106;2023-08-06T06:34:58;17.30;99.90
1011;DHT22;494;48.744;10.106;2023-08-06T06:37:58;17.40;99.90
1011;DHT22;494;48.744;10.106;2023-08-06T06:41:19;17.40;99.90
1011;DHT22;494;48.744;10.106;2023-08-06T06:44:05;17.40;99.90
1011;DHT22;494;48.744;10.106;2023-08-06T06:47:34;17.10;99.90
1011;DHT22;494;48.744;10.106;2023-08-06T06:50:33;16.80;99.90
1011;DHT22;494;48.744;10.106;2023-08-06T06:53:30;16.80;99.90
1011;DHT22;494;48.744;10.106;2023-08-06T10:12:34;17.50;99.90
1011;DHT22;494;48.744;10.106;2023-08-06T10:15:10;17.60;99.90
1011;DHT22;494;48.744;10.106;2023-08-06T10:17:49;17.70;99.90
1011;DHT22;494;48.744;10.106;2023-08-06T10:20:20;17.70;99.90
1011;DHT22;494;48.744;10.106;2023-08-06T10:23:00;17.90;99.90
1011;DHT22;494;48.744;10.106;2023-08-06T10:25:33;18.20;99.90
1011;DHT22;494;48.744;10.106;2023-08-06T10:31:11;18.40;99.90
1011;DHT22;494;48.744;10.106;2023-08-06T10:33:42;18.10;99.90
1011;DHT22;494;48.744;10.106;2023-08-06T10:39:54;18.20;99.90
1011;DHT22;494;48.744;10.106;2023-08-06T10:45:29;17.80;99.90
1011;DHT22;494;48.744;10.106;2023-08-06T10:48:10;17.80;99.90
1011;DHT22;494;48.744;10.106;2023-08-06T10:50:44;17.60;99.90
1011;DHT22;494;48.744;10.106;2023-08-06T10:53:15;17.30;99.90
1011;DHT22;494;48.744;10.106;2023-08-06T10:56:20;17.40;99.90
1011;DHT22;494;48.744;10.106;2023-08-06T10:58:53;17.20;99.90
1011;DHT22;494;48.744;10.106;2023-08-06T11:01:24;17.40;99.90
1011;DHT22;494;48.744;10.106;2023-08-06T11:04:07;17.80;99.90
1011;DHT22;494;48.744;10.106;2023-08-06T11:10:12;17.60;99.90
1011;DHT22;494;48.744;10.106;2023-08-06T11:15:46;17.10;99.90
1011;DHT22;494;48.744;10.106;2023-08-06T11:43:55;16.60;99.90
1011;DHT22;494;48.744;10.106;2023-08-06T11:46:51;16.10;99.90
1011;DHT22;494;48.744;10.106;2023-08-06T11:55:36;16.20;1.00
1011;DHT22;494;48.744;10.106;2023-08-06T12:34:25;15.60;1.00
1011;DHT22;494;48.744;10.106;2023-08-06T12:40:21;15.50;1.00
1011;DHT22;494;48.744;10.106;2023-08-06T12:43:04;15.40;1.00
1011;DHT22;494;48.744;10.106;2023-08-06T12:45:44;15.50;1.00
1011;DHT22;494;48.744;10.106;2023-08-06T12:48:25;15.50;1.00
1011;DHT22;494;48.744;10.106;2023-08-06T12:51:00;15.50;1.00
1011;DHT22;494;48.744;10.106;2023-08-06T12:56:29;15.30;1.00
1011;DHT22;494;48.744;10.106;2023-08-06T13:01:44;14.90;1.00
1011;DHT22;494;48.744;10.106;2023-08-06T13:07:30;14.80;1.00
1011;DHT22;494;48.744;10.106;2023-08-06T13:10:02;15.00;1.00
1011;DHT22;494;48.744;10.106;2023-08-06T13:18:29;15.00;1.00
1011;DHT22;494;48.744;10.106;2023-08-06T13:23:50;14.90;1.00
1011;DHT22;494;48.744;10.106;2023-08-06T13:26:20;15.00;1.00
1011;DHT22;494;48.744;10.106;2023-08-06T13:28:50;14.90;1.00
1011;DHT22;494;48.744;10.106;2023-08-06T13:31:44;14.80;1.00
1011;DHT22;494;48.744;10.106;2023-08-06T13:34:14;14.60;1.00
1011;DHT22;494;48.744;10.106;2023-08-06T13:36:54;14.60;1.00
1011;DHT22;494;48.744;10.106;2023-08-06T13:40:05;14.70;1.00
1011;DHT22;494;48.744;10.106;2023-08-06T13:42:37;14.70;1.00
1011;DHT22;494;48.744;10.106;2023-08-06T13:45:29;14.60;1.00
1011;DHT22;494;48.744;10.106;2023-08-06T13:48:01;14.40;1.00
1011;DHT22;494;48.744;10.106;2023-08-06T13:50:32;14.40;1.00
1011;DHT22;494;48.744;10.106;2023-08-06T13:53:02;14.50;1.00
1011;DHT22;494;48.744;10.106;2023-08-06T13:55:37;14.60;1.00
1011;DHT22;494;48.744;10.106;2023-08-06T13:58:07;14.70;1.00
1011;DHT22;494;48.744;10.106;2023-08-06T14:01:09;14.70;1.00
1011;DHT22;494;48.744;10.106;2023-08-06T14:04:13;14.70;1.00
1011;DHT22;494;48.744;10.106;2023-08-06T14:07:03;14.70;1.00
1011;DHT22;494;48.744;10.106;2023-08-06T14:09:57;14.60;1.00
1011;DHT22;494;48.744;10.106;2023-08-06T14:12:48;14.50;1.00
1011;DHT22;494;48.744;10.106;2023-08-06T14:15:38;14.70;1.00
1011;DHT22;494;48.744;10.106;2023-08-06T14:18:20;14.80;1.00
1011;DHT22;494;48.744;10.106;2023-08-06T14:21:01;15.00;1.00
1011;DHT22;494;48.744;10.106;2023-08-06T14:23:51;15.00;1.00
1011;DHT22;494;48.744;10.106;2023-08-06T14:27:06;14.80;1.00
1011;DHT22;494;48.744;10.106;2023-08-06T14:34:35;15.40;99.90
1011;DHT22;494;48.744;10.106;2023-08-06T14:37:29;15.30;99.90
1011;DHT22;494;48.744;10.106;2023-08-06T14:40:56;15.20;99.90
1011;DHT22;494;48.744;10.106;2023-08-06T14:43:39;15.40;99.90
1011;DHT22;494;48.744;10.106;2023-08-06T14:47:15;15.30;99.90
1011;DHT22;494;48.744;10.106;2023-08-06T14:50:01;15.20;99.90
1011;DHT22;494;48.744;10.106;2023-08-06T14:52:44;15.00;99.90
1011;DHT22;494;48.744;10.106;2023-08-06T14:55:22;14.80;99.90
1011;DHT22;494;48.744;10.106;2023-08-06T14:57:53;14.80;99.90
1011;DHT22;494;48.744;10.106;2023-08-06T15:00:23;14.80;1.00
1011;DHT22;494;48.744;10.106;2023-08-06T15:02:57;14.90;1.00
1011;DHT22;494;48.744;10.106;2023-08-06T15:05:26;15.10;1.00
1011;DHT22;494;48.744;10.106;2023-08-06T15:07:57;15.20;1.00
1011;DHT22;494;48.744;10.106;2023-08-06T15:10:27;15.10;1.00
1011;DHT22;494;48.744;10.106;2023-08-06T15:13:20;15.00;99.90
1011;DHT22;494;48.744;10.106;2023-08-06T15:15:56;14.50;99.90
1011;DHT22;494;48.744;10.106;2023-08-06T15:18:58;14.30;1.00
1011;DHT22;494;48.744;10.106;2023-08-06T15:25:27;14.30;1.00
1011;DHT22;494;48.744;10.106;2023-08-06T15:33:08;14.60;1.00
1011;DHT22;494;48.744;10.106;2023-08-06T15:36:03;14.80;1.00
1011;DHT22;494;48.744;10.106;2023-08-06T15:38:40;14.80;1.00
1011;DHT22;494;48.744;10.106;2023-08-06T15:41:12;14.90;1.00
1011;DHT22;494;48.744;10.106;2023-08-06T15:44:02;14.90;1.00
1011;DHT22;494;48.744;10.106;2023-08-06T15:46:35;15.00;1.00
1011;DHT22;494;48.744;10.106;2023-08-06T15:58:15;15.10;1.00
1011;DHT22;494;48.744;10.106;2023-08-06T16:01:20;14.90;1.40
1011;DHT22;494;48.744;10.106;2023-08-06T16:05:11;14.70;99.90
1011;DHT22;494;48.744;10.106;2023-08-06T16:08:57;14.70;1.00
1011;DHT22;494;48.744;10.106;2023-08-06T16:12:11;14.50;99.90
1011;DHT22;494;48.744;10.106;2023-08-06T16:15:41;14.50;1.00
1011;DHT22;494;48.744;10.106;2023-08-06T16:18:30;14.40;1.00
1011;DHT22;494;48.744;10.106;2023-08-06T16:21:21;14.30;1.00
1011;DHT22;494;48.744;10.106;2023-08-06T16:28:17;14.40;1.00
1011;DHT22;494;48.744;10.106;2023-08-06T16:54:46;14.70;1.00
1011;DHT22;494;48.744;10.106;2023-08-06T16:58:06;14.80;1.00
1011;DHT22;494;48.744;10.106;2023-08-06T17:00:50;14.70;1.00
1011;DHT22;494;48.744;10.106;2023-08-06T17:03:39;14.60;1.00
1011;DHT22;494;48.744;10.106;2023-08-06T17:06:36;14.60;1.00
1011;DHT22;494;48.744;10.106;2023-08-06T17:09:10;14.70;1.00
1011;DHT22;494;48.744;10.106;2023-08-06T17:12:42;14.90;1.00
1011;DHT22;494;48.744;10.106;2023-08-06T17:15:28;14.90;1.00
1011;DHT22;494;48.744;10.106;2023-08-06T17:21:31;14.80;99.90
1011;DHT22;494;48.744;10.106;2023-08-06T17:24:31;14.70;1.00
1011;DHT22;494;48.744;10.106;2023-08-06T17:27:45;14.40;1.00
1011;DHT22;494;48.744;10.106;2023-08-06T17:30:32;14.20;1.00
1011;DHT22;494;48.744;10.106;2023-08-06T17:33:10;13.90;1.00
1011;DHT22;494;48.744;10.106;2023-08-06T17:36:05;13.90;1.00
1011;DHT22;494;48.744;10.106;2023-08-06T17:39:13;13.80;1.00
1011;DHT22;494;48.744;10.106;2023-08-06T18:09:17;13.40;1.00
1011;DHT22;494;48.744;10.106;2023-08-06T18:15:57;13.20;1.00
1011;DHT22;494;48.744;10.106;2023-08-06T18:25:10;13.30;1.00
1011;DHT22;494;48.744;10.106;2023-08-06T19:20:42;12.90;1.00
1011;DHT22;494;48.744;10.106;2023-08-06T19:23:33;13.10;1.00
1011;DHT22;494;48.744;10.106;2023-08-06T19:26:17;13.10;1.00
1011;DHT22;494;48.744;10.106;2023-08-06T19:28:55;13.00;1.00
1011;DHT22;494;48.744;10.106;2023-08-06T19:32:08;13.00;1.00
1011;DHT22;494;48.744;10.106;2023-08-06T19:50:30;13.00;1.00
1011;DHT22;494;48.744;10.106;2023-08-06T19:53:02;13.00;1.00
1011;DHT22;494;48.744;10.106;2023-08-06T19:55:38;13.00;1.00
1011;DHT22;494;48.744;10.106;2023-08-06T19:58:09;12.90;1.00
1011;DHT22;494;48.744;10.106;2023-08-06T20:00:44;12.70;1.00
1011;DHT22;494;48.744;10.106;2023-08-06T20:03:19;12.90;1.00
1011;DHT22;494;48.744;10.106;2023-08-06T20:06:01;13.10;1.00
1011;DHT22;494;48.744;10.106;2023-08-06T20:08:53;13.10;1.00
1011;DHT22;494;48.744;10.106;2023-08-06T20:11:45;12.90;1.00
1011;DHT22;494;48.744;10.106;2023-08-06T20:14:22;13.10;1.00
1011;DHT22;494;48.744;10.106;2023-08-06T20:17:10;13.10;1.00
1011;DHT22;494;48.744;10.106;2023-08-06T20:19:49;13.20;1.00
1011;DHT22;494;48.744;10.106;2023-08-06T20:22:44;13.20;1.00
1011;DHT22;494;48.744;10.106;2023-08-06T20:25:16;13.20;1.00
1011;DHT22;494;48.744;10.106;2023-08-06T20:27:47;13.10;1.00
1011;DHT22;494;48.744;10.106;2023-08-06T20:30:33;13.10;1.00
1011;DHT22;494;48.744;10.106;2023-08-06T20:33:16;13.20;1.00
1011;DHT22;494;48.744;10.106;2023-08-06T20:36:06;13.20;1.00
1011;DHT22;494;48.744;10.106;2023-08-06T21:02:57;13.00;1.00
1011;DHT22;494;48.744;10.106;2023-08-06T21:06:23;13.00;1.00
1011;DHT22;494;48.744;10.106;2023-08-06T21:09:44;13.00;1.00
1011;DHT22;494;48.744;10.106;2023-08-06T21:12:53;12.90;1.00
1011;DHT22;494;48.744;10.106;2023-08-06T21:19:00;12.80;1.00
1011;DHT22;494;48.744;10.106;2023-08-06T21:21:57;12.80;1.00
1011;DHT22;494;48.744;10.106;2023-08-06T21:25:09;12.90;1.00
1011;DHT22;494;48.744;10.106;2023-08-06T21:28:18;12.90;1.00
1011;DHT22;494;48.744;10.106;2023-08-06T21:31:10;12.80;1.00
1011;DHT22;494;48.744;10.106;2023-08-06T21:44:57;12.50;1.00
1011;DHT22;494;48.744;10.106;2023-08-06T21:48:21;12.40;1.00
1011;DHT22;494;48.744;10.106;2023-08-06T21:51:52;12.40;1.00
1011;DHT22;494;48.744;10.106;2023-08-06T21:54:57;12.30;1.00
1011;DHT22;494;48.744;10.106;2023-08-06T22:01:39;12.30;1.00
1011;DHT22;494;48.744;10.106;2023-08-06T22:04:45;12.40;1.00
1011;DHT22;494;48.744;10.106;2023-08-06T22:07:15;12.30;1.00
